createdAt,value
2022-08-26T00:04:07.601Z,57
2022-08-26T00:14:07.454Z,57
2022-08-26T00:24:07.541Z,57
2022-08-26T00:34:07.449Z,57
2022-08-26T00:44:07.537Z,57
2022-08-26T00:54:07.440Z,57
2022-08-26T01:04:07.542Z,57
2022-08-26T01:14:07.459Z,57
2022-08-26T01:24:07.540Z,57
2022-08-26T01:34:07.442Z,57
2022-08-26T01:44:07.550Z,57
2022-08-26T01:54:07.430Z,57
2022-08-26T02:04:07.573Z,57
2022-08-26T02:14:07.655Z,57.5
2022-08-26T02:24:07.552Z,57.5
2022-08-26T02:34:07.643Z,57.5
2022-08-26T02:44:07.539Z,57.5
2022-08-26T02:54:07.644Z,57.5
2022-08-26T03:04:07.543Z,58
2022-08-26T03:14:07.648Z,58
2022-08-26T03:24:07.542Z,58
2022-08-26T03:34:07.646Z,58
2022-08-26T03:44:07.735Z,58
2022-08-26T03:54:08.191Z,58
2022-08-26T04:04:07.738Z,58
2022-08-26T04:14:07.635Z,58.5
2022-08-26T04:24:11.402Z,58.5
2022-08-26T04:34:07.630Z,58.5
2022-08-26T04:44:07.764Z,58.5
2022-08-26T04:54:07.623Z,59
2022-08-26T05:04:08.011Z,59
2022-08-26T05:14:07.821Z,59
2022-08-26T05:24:07.727Z,59
2022-08-26T05:34:08.425Z,59
2022-08-26T05:44:07.726Z,59
2022-08-26T05:54:07.840Z,59
2022-08-26T06:04:07.710Z,59
2022-08-26T06:14:07.806Z,59
2022-08-26T06:24:07.721Z,59
2022-08-26T06:34:10.652Z,59
2022-08-26T06:44:07.897Z,58.5
2022-08-26T06:54:07.798Z,58.5
2022-08-26T07:04:10.050Z,58.5
2022-08-26T07:14:07.805Z,58.5
2022-08-26T07:24:07.897Z,58.5
2022-08-26T07:34:07.792Z,58.5
2022-08-26T07:44:08.519Z,58.5
2022-08-26T07:54:07.982Z,58.5
2022-08-26T08:04:08.132Z,58
2022-08-26T08:14:08.380Z,58
2022-08-26T08:24:07.887Z,57.5
2022-08-26T08:34:07.975Z,57.5
2022-08-26T08:44:07.877Z,57
2022-08-26T08:54:07.967Z,58
2022-08-26T09:04:08.008Z,57
2022-08-26T09:14:07.905Z,55.5
2022-08-26T09:24:08.048Z,55
2022-08-26T09:34:07.919Z,54.5
2022-08-26T09:44:08.003Z,54.5
2022-08-26T09:54:08.335Z,53
2022-08-26T10:04:08.091Z,54
2022-08-26T10:14:08.127Z,54
2022-08-26T10:24:08.013Z,53.5
2022-08-26T10:34:08.094Z,52.5
2022-08-26T10:44:07.984Z,52
2022-08-26T10:54:08.107Z,52
2022-08-26T11:04:08.207Z,51.5
2022-08-26T11:14:08.116Z,51
2022-08-26T11:24:08.183Z,51.5
2022-08-26T11:34:08.804Z,50.5
2022-08-26T11:44:08.176Z,50
2022-08-26T11:54:08.076Z,48.5
2022-08-26T12:04:08.328Z,48.5
2022-08-26T12:14:08.068Z,48
2022-08-26T12:24:08.163Z,47.5
2022-08-26T12:34:11.683Z,48.5
2022-08-26T12:44:08.176Z,48.5
2022-08-26T12:54:08.257Z,47.5
2022-08-26T13:04:08.157Z,46.5
2022-08-26T13:14:08.258Z,46
2022-08-26T13:24:08.157Z,45
2022-08-26T13:34:08.260Z,46.5
2022-08-26T13:44:08.161Z,46
2022-08-26T13:54:08.251Z,47.5
2022-08-26T14:04:08.353Z,48
2022-08-26T14:14:08.238Z,48
2022-08-26T14:24:08.347Z,48
2022-08-26T14:34:08.238Z,48.5
2022-08-26T14:44:08.340Z,49
2022-08-26T14:54:08.230Z,48.5
2022-08-26T15:04:08.332Z,50
2022-08-26T15:14:08.432Z,50
2022-08-26T15:24:08.320Z,50
2022-08-26T15:34:10.221Z,49.5
2022-08-26T15:44:08.326Z,48
2022-08-26T15:54:08.436Z,47.5
2022-08-26T16:04:08.325Z,47
2022-08-26T16:14:08.431Z,47
2022-08-26T16:24:08.310Z,47.5
2022-08-26T16:34:08.411Z,48
2022-08-26T16:44:08.512Z,49
2022-08-26T16:54:08.433Z,53
2022-08-26T17:04:08.533Z,49.5
2022-08-26T17:14:08.429Z,50.5
2022-08-26T17:24:08.517Z,51
2022-08-26T17:34:08.408Z,51
2022-08-26T17:44:08.571Z,49.5
2022-08-26T17:54:08.457Z,50.5
2022-08-26T18:04:08.661Z,50
2022-08-26T18:14:08.447Z,49.5
2022-08-26T18:24:12.207Z,51.5
2022-08-26T18:34:09.450Z,54
2022-08-26T18:44:13.388Z,56.5
2022-08-26T18:54:09.887Z,57.5
2022-08-26T19:04:09.708Z,59
2022-08-26T19:14:08.655Z,61.5
2022-08-26T19:24:08.561Z,63
2022-08-26T19:34:08.865Z,63
2022-08-26T19:44:08.837Z,63
2022-08-26T19:54:08.708Z,63
2022-08-26T20:04:08.733Z,62.5
2022-08-26T20:14:08.755Z,62.5
2022-08-26T20:24:08.810Z,62
2022-08-26T20:34:08.694Z,62
2022-08-26T20:44:08.739Z,62
2022-08-26T20:54:08.632Z,62
2022-08-26T21:04:08.858Z,62
2022-08-26T21:14:16.319Z,62
2022-08-26T21:24:08.720Z,62
2022-08-26T21:34:08.625Z,63.5
2022-08-26T21:44:08.728Z,63
2022-08-26T21:54:11.184Z,62.5
2022-08-26T22:04:08.729Z,62.5
2022-08-26T22:14:08.817Z,62.5
2022-08-26T22:24:08.720Z,62.5
2022-08-26T22:34:08.829Z,62.5
2022-08-26T22:44:08.798Z,62
2022-08-26T22:54:08.810Z,62
2022-08-26T23:04:08.907Z,62
2022-08-26T23:14:08.803Z,62
2022-08-26T23:24:08.898Z,62
2022-08-26T23:34:08.820Z,62
2022-08-26T23:44:08.937Z,62
2022-08-26T23:54:08.814Z,62
